TAS weather

Tashkent International Airport
Tashkent, Toshkent, Uzbekistan

Public forecast

Using degrees Celsius for public forecast. Weather courtesy of forecast.io.

Current aviation weather report (METAR) for Tashkent International Airport

Retrieved 2020/07/05 13:30 UTC (15 minutes ago):

UTTT 051330Z 32012KT 290V350 CAVOK 31/05 Q1005 R08R/CLRD70 NOSIG

Aviation forecast (TAF) for Tashkent International Airport

Retrieved 2020/07/05 12:09 UTC (2 hours ago):

TAF UTTT 051100Z 0512/0612 24010KT CAVOK TX35/0610Z TEMPO 0512/0518 30010G20KT FEW060CB SCT100